createdAt,value
2019-04-29T00:03:55.365Z,79.80
2019-04-29T00:08:59.212Z,79.50
2019-04-29T00:14:02.880Z,80.00
2019-04-29T00:19:10.883Z,80.00
2019-04-29T00:24:14.317Z,80.20
2019-04-29T00:29:23.947Z,80.30
2019-04-29T00:34:27.557Z,79.70
2019-04-29T00:39:47.647Z,79.80
2019-04-29T00:44:51.321Z,79.10
2019-04-29T00:49:54.776Z,80.20
2019-04-29T00:55:08.697Z,80.20
2019-04-29T01:00:14.582Z,79.90
2019-04-29T01:05:18.030Z,80.30
2019-04-29T01:10:21.794Z,80.80
2019-04-29T01:15:25.257Z,80.80
2019-04-29T01:20:28.754Z,80.70
2019-04-29T01:25:32.205Z,81.20
2019-04-29T01:30:38.731Z,80.90
2019-04-29T01:35:42.590Z,79.80
2019-04-29T01:40:47.919Z,80.20
2019-04-29T01:45:51.639Z,81.20
2019-04-29T01:50:55.136Z,80.90
2019-04-29T01:55:58.574Z,80.90
2019-04-29T02:01:02.040Z,81.30
2019-04-29T02:06:05.582Z,82.10
2019-04-29T02:11:09.022Z,82.00
2019-04-29T02:16:12.757Z,81.20
2019-04-29T02:21:16.535Z,80.70
2019-04-29T02:26:19.981Z,81.30
2019-04-29T02:37:29.548Z,81.60
2019-04-29T02:42:35.058Z,81.50
2019-04-29T02:47:38.509Z,81.50
2019-04-29T02:52:42.199Z,81.20
2019-04-29T02:57:47.313Z,81.40
2019-04-29T03:03:19.489Z,81.80
2019-04-29T03:08:23.251Z,81.60
2019-04-29T03:13:27.045Z,81.70
2019-04-29T03:18:32.195Z,81.90
2019-04-29T03:23:35.710Z,81.80
2019-04-29T03:28:39.418Z,81.20
2019-04-29T03:33:43.151Z,82.10
2019-04-29T03:38:46.678Z,82.00
2019-04-29T03:43:50.453Z,81.10
2019-04-29T03:48:53.896Z,81.00
2019-04-29T03:53:57.667Z,80.50
2019-04-29T03:59:01.234Z,80.60
2019-04-29T04:04:06.477Z,80.80
2019-04-29T04:09:11.932Z,80.60
2019-04-29T04:14:15.649Z,80.80
2019-04-29T04:19:20.214Z,79.90
2019-04-29T04:24:23.738Z,80.30
2019-04-29T04:29:27.416Z,81.00
2019-04-29T04:34:30.872Z,81.50
2019-04-29T04:39:35.981Z,81.00
2019-04-29T04:44:48.923Z,81.10
2019-04-29T04:49:52.372Z,81.50
2019-04-29T04:54:56.059Z,80.90
2019-04-29T04:59:59.509Z,80.90
2019-04-29T05:05:03.323Z,81.20
2019-04-29T05:10:07.628Z,81.70
2019-04-29T05:15:11.431Z,81.70
2019-04-29T05:20:15.076Z,81.00
2019-04-29T05:25:18.566Z,80.70
2019-04-29T05:30:23.855Z,81.20
2019-04-29T05:35:44.180Z,81.50
2019-04-29T05:40:52.414Z,81.60
2019-04-29T05:46:09.240Z,81.30
2019-04-29T05:51:17.364Z,81.30
2019-04-29T05:56:20.885Z,81.40
2019-04-29T06:01:25.997Z,81.40
2019-04-29T06:06:29.698Z,82.30
2019-04-29T06:11:33.186Z,81.40
2019-04-29T06:16:36.619Z,81.60
2019-04-29T06:21:40.143Z,80.90
2019-04-29T06:26:43.887Z,81.20
2019-04-29T06:31:47.441Z,80.80
2019-04-29T06:36:50.887Z,79.40
2019-04-29T06:41:54.497Z,79.10
2019-04-29T06:46:58.244Z,80.20
2019-04-29T06:52:01.953Z,79.60
2019-04-29T06:57:05.671Z,79.60
2019-04-29T07:02:14.154Z,79.00
2019-04-29T07:07:14.938Z,79.50
2019-04-29T07:12:18.673Z,78.70
2019-04-29T07:17:22.376Z,77.40
2019-04-29T07:22:27.413Z,77.40
2019-04-29T07:27:34.433Z,75.50
2019-04-29T07:32:36.736Z,75.00
2019-04-29T07:37:40.202Z,73.80
2019-04-29T07:42:43.827Z,72.20
2019-04-29T07:47:56.342Z,72.30
2019-04-29T07:52:54.370Z,69.90
2019-04-29T07:57:57.824Z,70.10
2019-04-29T08:03:02.443Z,68.60
2019-04-29T08:08:06.361Z,66.60
2019-04-29T08:13:11.267Z,66.70
2019-04-29T08:18:16.274Z,66.70
2019-04-29T08:23:20.796Z,66.00
2019-04-29T08:28:25.905Z,64.20
2019-04-29T08:39:32.905Z,61.70
2019-04-29T08:44:44.423Z,61.50
2019-04-29T08:49:48.320Z,59.60
2019-04-29T08:54:55.406Z,59.50
2019-04-29T08:59:57.207Z,59.60
2019-04-29T09:05:11.505Z,59.40
2019-04-29T09:10:14.334Z,58.90
2019-04-29T09:15:18.223Z,56.80
2019-04-29T09:20:21.818Z,55.80
2019-04-29T09:25:28.051Z,53.90
2019-04-29T09:30:31.946Z,53.20
2019-04-29T09:35:38.806Z,50.10
2019-04-29T09:40:45.749Z,51.20
2019-04-29T09:45:58.625Z,50.70
2019-04-29T09:51:02.275Z,50.60
2019-04-29T09:56:05.996Z,50.90
2019-04-29T10:01:28.882Z,50.80
2019-04-29T10:06:34.042Z,51.70
2019-04-29T10:11:37.573Z,51.70
2019-04-29T10:16:42.671Z,50.20
2019-04-29T10:21:46.383Z,49.60
2019-04-29T10:26:50.011Z,49.70
2019-04-29T10:31:54.222Z,49.60
2019-04-29T10:36:57.674Z,49.70
2019-04-29T10:42:03.039Z,47.50
2019-04-29T10:47:17.068Z,48.30
2019-04-29T10:52:20.633Z,48.30
2019-04-29T10:57:29.011Z,50.20
2019-04-29T11:02:35.695Z,49.00
2019-04-29T11:07:43.528Z,47.50
2019-04-29T11:12:47.401Z,49.60
2019-04-29T11:17:58.745Z,49.90
2019-04-29T11:23:17.524Z,48.20
2019-04-29T11:28:20.810Z,49.10
2019-04-29T11:33:29.272Z,48.30
2019-04-29T11:38:36.051Z,47.60
2019-04-29T11:43:38.309Z,46.00
2019-04-29T11:48:41.821Z,45.70
2019-04-29T11:53:45.407Z,46.70
2019-04-29T11:58:59.964Z,46.10
2019-04-29T12:04:23.070Z,46.50
2019-04-29T12:09:30.461Z,46.80
2019-04-29T12:14:50.305Z,46.00
2019-04-29T12:20:10.096Z,45.50
2019-04-29T12:25:13.868Z,46.40
2019-04-29T12:30:19.029Z,45.00
2019-04-29T12:35:30.340Z,43.70
2019-04-29T12:40:55.124Z,44.80
2019-04-29T12:46:05.248Z,45.70
2019-04-29T12:51:08.801Z,44.80
2019-04-29T12:56:12.804Z,44.70
2019-04-29T13:01:50.741Z,45.40
2019-04-29T13:07:00.911Z,44.90
2019-04-29T13:12:18.901Z,43.60
2019-04-29T13:17:14.802Z,44.70
2019-04-29T13:22:17.347Z,46.20
2019-04-29T13:27:25.280Z,45.50
2019-04-29T13:32:29.854Z,45.00
2019-04-29T13:37:31.926Z,44.60
2019-04-29T13:42:35.461Z,45.20
2019-04-29T13:47:43.280Z,45.00
2019-04-29T13:52:46.736Z,45.80
2019-04-29T13:57:50.821Z,44.60
2019-04-29T14:03:02.245Z,44.90
2019-04-29T14:08:05.759Z,45.90
2019-04-29T14:13:13.437Z,46.00
2019-04-29T14:18:14.638Z,46.50
2019-04-29T14:23:18.088Z,45.70
2019-04-29T14:28:21.523Z,44.40
2019-04-29T14:33:26.783Z,45.20
2019-04-29T14:44:18.071Z,46.30
2019-04-29T14:49:25.923Z,46.50
2019-04-29T14:54:29.416Z,46.60
2019-04-29T14:59:33.022Z,47.40
2019-04-29T15:04:40.990Z,46.60
2019-04-29T15:09:47.141Z,46.20
2019-04-29T15:15:04.918Z,46.30
2019-04-29T15:20:30.372Z,47.80
2019-04-29T15:25:31.085Z,48.10
2019-04-29T15:30:36.686Z,48.00
2019-04-29T15:35:39.835Z,46.00
2019-04-29T15:40:43.451Z,47.00
2019-04-29T15:45:47.180Z,47.60
2019-04-29T15:50:50.613Z,48.40
2019-04-29T15:56:06.096Z,47.30
2019-04-29T16:01:12.899Z,47.90
2019-04-29T16:06:22.229Z,48.10
2019-04-29T16:11:39.481Z,48.20
2019-04-29T16:16:42.935Z,48.20
2019-04-29T16:21:46.706Z,48.70
2019-04-29T16:26:53.786Z,48.60
2019-04-29T16:32:02.587Z,49.00
2019-04-29T16:37:01.199Z,49.10
2019-04-29T16:42:18.602Z,49.50
2019-04-29T16:47:23.173Z,49.30
2019-04-29T16:52:26.916Z,48.90
2019-04-29T16:57:30.365Z,49.60
2019-04-29T17:02:33.823Z,50.10
2019-04-29T17:07:37.328Z,50.50
2019-04-29T17:12:42.480Z,49.70
2019-04-29T17:17:46.007Z,50.00
2019-04-29T17:22:49.631Z,52.00
2019-04-29T17:28:00.717Z,52.40
2019-04-29T17:33:09.067Z,52.40
2019-04-29T17:38:12.784Z,53.50
2019-04-29T17:50:09.202Z,56.80
2019-04-29T17:55:41.055Z,58.00
2019-04-29T18:12:58.262Z,61.80
2019-04-29T18:18:08.769Z,61.70
2019-04-29T18:46:25.903Z,64.00
2019-04-29T18:51:30.742Z,64.60
2019-04-29T18:56:36.325Z,64.90
2019-04-29T19:01:39.649Z,65.20
2019-04-29T19:06:43.184Z,65.20
2019-04-29T19:12:18.284Z,64.70
2019-04-29T19:17:23.337Z,65.00
2019-04-29T19:28:11.531Z,64.50
